createdAt,value
2023-06-04T00:00:00.564Z,6.57
2023-06-04T00:02:28.342Z,6.25
2023-06-04T00:04:56.011Z,5.72
2023-06-04T00:07:23.649Z,5.05
2023-06-04T00:09:51.396Z,5.82
2023-06-04T00:12:19.030Z,4.68
2023-06-04T00:14:46.724Z,6.53
2023-06-04T00:17:14.464Z,6.00
2023-06-04T00:19:47.688Z,5.35
2023-06-04T00:22:15.284Z,4.60
2023-06-04T00:24:43.048Z,5.00
2023-06-04T00:27:10.822Z,6.05
2023-06-04T00:29:38.527Z,4.97
2023-06-04T00:32:06.525Z,6.47
2023-06-04T00:34:34.205Z,5.75
2023-06-04T00:37:04.626Z,5.63
2023-06-04T00:39:32.348Z,4.95
2023-06-04T00:42:00.152Z,4.55
2023-06-04T00:44:30.990Z,4.90
2023-06-04T00:46:58.757Z,5.40
2023-06-04T00:49:27.406Z,4.20
2023-06-04T00:51:57.125Z,4.63
2023-06-04T00:54:27.327Z,4.18
2023-06-04T00:56:57.643Z,4.88
2023-06-04T00:59:25.309Z,4.22
2023-06-04T01:01:55.865Z,4.03
2023-06-04T01:04:27.948Z,4.63
2023-06-04T01:06:57.311Z,3.72
2023-06-04T01:09:27.800Z,3.45
2023-06-04T01:11:56.085Z,3.33
2023-06-04T01:14:26.219Z,3.03
2023-06-04T01:17:04.895Z,3.47
2023-06-04T01:20:01.588Z,3.03
2023-06-04T01:22:33.008Z,3.10
2023-06-04T01:25:04.144Z,2.90
2023-06-04T01:27:32.346Z,2.67
2023-06-04T01:30:02.116Z,3.60
2023-06-04T01:32:29.940Z,2.67
2023-06-04T01:34:57.818Z,2.63
2023-06-04T01:37:25.488Z,2.60
2023-06-04T01:39:53.050Z,2.55
2023-06-04T01:42:20.802Z,2.38
2023-06-04T01:44:48.513Z,2.70
2023-06-04T01:47:16.547Z,2.95
2023-06-04T01:49:44.238Z,3.05
2023-06-04T01:52:12.770Z,2.03
2023-06-04T01:54:40.424Z,4.20
2023-06-04T01:57:08.311Z,2.83
2023-06-04T01:59:38.878Z,2.00
2023-06-04T02:02:06.869Z,2.47
2023-06-04T02:04:38.066Z,2.75
2023-06-04T02:07:05.842Z,2.03
2023-06-04T02:09:33.422Z,2.13
2023-06-04T02:12:01.314Z,3.15
2023-06-04T02:14:28.901Z,2.30
2023-06-04T02:16:59.412Z,2.15
2023-06-04T02:19:28.367Z,2.40
2023-06-04T02:21:55.948Z,2.13
2023-06-04T02:24:24.170Z,2.92
2023-06-04T02:26:51.812Z,3.13
2023-06-04T02:29:19.773Z,2.63
2023-06-04T02:31:47.387Z,2.88
2023-06-04T02:34:14.979Z,3.58
2023-06-04T02:36:50.419Z,2.60
2023-06-04T02:39:18.473Z,3.17
2023-06-04T02:41:49.141Z,3.33
2023-06-04T02:44:16.818Z,3.03
2023-06-04T02:46:45.473Z,2.45
2023-06-04T02:49:15.725Z,2.55
2023-06-04T02:51:43.419Z,3.60
2023-06-04T02:54:11.290Z,3.63
2023-06-04T02:56:38.970Z,2.63
2023-06-04T02:59:06.833Z,2.72
2023-06-04T03:01:34.650Z,2.58
2023-06-04T03:04:05.568Z,3.38
2023-06-04T03:06:36.740Z,3.55
2023-06-04T03:09:04.461Z,3.05
2023-06-04T03:11:32.193Z,2.65
2023-06-04T03:13:59.847Z,2.58
2023-06-04T03:16:29.846Z,3.28
2023-06-04T03:18:58.393Z,2.75
2023-06-04T03:21:27.078Z,3.40
2023-06-04T03:23:54.718Z,3.50
2023-06-04T03:26:22.840Z,4.30
2023-06-04T03:28:50.389Z,4.07
2023-06-04T03:31:17.989Z,4.85
2023-06-04T03:33:48.181Z,4.40
2023-06-04T03:36:15.730Z,3.78
2023-06-04T03:38:43.271Z,3.25
2023-06-04T03:41:10.978Z,3.85
2023-06-04T03:43:38.562Z,3.38
2023-06-04T03:46:06.125Z,5.18
2023-06-04T03:48:33.698Z,4.30
2023-06-04T03:51:01.552Z,3.83
2023-06-04T03:53:29.224Z,4.78
2023-06-04T03:55:57.300Z,3.22
2023-06-04T03:58:25.732Z,3.60
2023-06-04T04:00:53.331Z,3.75
2023-06-04T04:03:21.531Z,4.32
2023-06-04T04:05:49.198Z,4.00
2023-06-04T04:08:17.969Z,3.42
2023-06-04T04:10:46.713Z,5.60
2023-06-04T04:13:14.345Z,4.80
2023-06-04T04:15:41.926Z,3.95
2023-06-04T04:18:10.215Z,3.85
2023-06-04T04:20:37.810Z,3.40
2023-06-04T04:23:05.371Z,4.18
2023-06-04T04:25:34.266Z,5.18
2023-06-04T04:28:02.414Z,3.58
2023-06-04T04:30:30.280Z,4.55
2023-06-04T04:32:58.184Z,3.00
2023-06-04T04:35:25.726Z,3.38
2023-06-04T04:37:53.305Z,3.83
2023-06-04T04:40:21.026Z,4.30
2023-06-04T04:42:48.540Z,3.83
2023-06-04T04:45:19.345Z,3.92
2023-06-04T04:47:47.173Z,3.58
2023-06-04T04:50:17.365Z,3.13
2023-06-04T04:52:44.882Z,3.88
2023-06-04T04:55:13.899Z,5.47
2023-06-04T04:57:41.805Z,3.30
2023-06-04T05:00:12.567Z,3.90
2023-06-04T05:02:40.724Z,3.70
2023-06-04T05:05:08.526Z,4.03
2023-06-04T05:07:36.096Z,2.50
2023-06-04T05:10:03.680Z,4.55
2023-06-04T05:12:33.417Z,3.03
2023-06-04T05:15:04.990Z,3.90
2023-06-04T05:17:32.836Z,3.50
2023-06-04T05:20:06.778Z,3.40
2023-06-04T05:22:34.279Z,3.72
2023-06-04T05:25:01.819Z,2.63
2023-06-04T05:27:29.792Z,3.63
2023-06-04T05:29:58.134Z,3.13
2023-06-04T05:32:28.463Z,3.10
2023-06-04T05:34:58.918Z,4.82
2023-06-04T05:37:30.220Z,3.05
2023-06-04T05:39:58.445Z,3.63
2023-06-04T05:42:26.546Z,3.35
2023-06-04T05:44:54.339Z,3.88
2023-06-04T05:47:21.914Z,2.78
2023-06-04T05:49:52.709Z,3.67
2023-06-04T05:52:20.280Z,3.38
2023-06-04T05:54:47.940Z,3.83
2023-06-04T05:57:16.270Z,2.90
2023-06-04T05:59:44.569Z,3.88
2023-06-04T06:02:12.080Z,3.85
2023-06-04T06:04:39.799Z,2.10
2023-06-04T06:07:07.836Z,2.47
2023-06-04T06:09:39.258Z,3.33
2023-06-04T06:12:07.431Z,2.38
2023-06-04T06:14:35.499Z,2.22
2023-06-04T06:17:04.929Z,2.75
2023-06-04T06:19:32.523Z,2.50
2023-06-04T06:22:00.722Z,2.88
2023-06-04T06:24:28.505Z,2.60
2023-06-04T06:26:59.141Z,2.40
2023-06-04T06:29:27.153Z,3.08
2023-06-04T06:31:54.822Z,3.45
2023-06-04T06:34:22.458Z,3.60
2023-06-04T06:36:50.019Z,3.25
2023-06-04T06:39:17.790Z,2.42
2023-06-04T06:41:45.401Z,2.53
2023-06-04T06:44:13.191Z,3.03
2023-06-04T06:46:40.802Z,4.25
2023-06-04T06:49:08.418Z,2.95
2023-06-04T06:51:36.002Z,2.78
2023-06-04T06:54:03.587Z,3.08
2023-06-04T06:56:32.302Z,3.72
2023-06-04T06:58:59.814Z,2.95
2023-06-04T07:01:27.500Z,2.88
2023-06-04T07:03:55.238Z,2.63
2023-06-04T07:06:22.828Z,3.67
2023-06-04T07:08:51.049Z,2.60
2023-06-04T07:11:18.709Z,2.35
2023-06-04T07:13:46.378Z,3.78
2023-06-04T07:16:13.989Z,2.45
2023-06-04T07:18:41.568Z,3.30
2023-06-04T07:21:09.482Z,2.72
2023-06-04T07:23:37.249Z,2.83
2023-06-04T07:26:04.950Z,3.72
2023-06-04T07:28:32.654Z,3.20
2023-06-04T07:31:00.195Z,2.85
2023-06-04T07:33:29.212Z,2.58
2023-06-04T07:35:57.045Z,2.45
2023-06-04T07:38:24.604Z,3.55
2023-06-04T07:40:55.021Z,2.63
2023-06-04T07:43:22.550Z,2.67
2023-06-04T07:45:50.178Z,2.58
2023-06-04T07:48:18.091Z,2.75
2023-06-04T07:50:45.604Z,3.13
2023-06-04T07:53:13.335Z,2.97
2023-06-04T07:55:40.900Z,2.00
2023-06-04T07:58:08.422Z,2.72
2023-06-04T08:00:36.513Z,2.08
2023-06-04T08:03:04.185Z,2.10
2023-06-04T08:05:32.146Z,3.35
2023-06-04T08:07:59.700Z,1.77
2023-06-04T08:10:27.270Z,2.85
2023-06-04T08:12:54.857Z,2.13
2023-06-04T08:15:23.268Z,2.35
2023-06-04T08:17:50.944Z,2.10
2023-06-04T08:20:18.533Z,3.28
2023-06-04T08:22:46.251Z,2.10
2023-06-04T08:25:16.413Z,2.25
2023-06-04T08:27:44.285Z,4.25
2023-06-04T08:30:14.581Z,2.33
2023-06-04T08:32:42.840Z,2.17
2023-06-04T08:35:10.529Z,3.30
2023-06-04T08:37:38.168Z,2.33
2023-06-04T08:40:10.593Z,2.45
2023-06-04T08:42:40.656Z,3.17
2023-06-04T08:45:11.878Z,1.73
2023-06-04T08:47:40.717Z,2.40
2023-06-04T08:50:11.043Z,1.95
2023-06-04T08:52:39.511Z,2.47
2023-06-04T08:55:07.520Z,2.33
2023-06-04T08:57:35.641Z,2.10
2023-06-04T09:00:06.394Z,1.70
2023-06-04T09:02:37.708Z,1.92
2023-06-04T09:05:10.838Z,1.73
2023-06-04T09:07:39.173Z,2.55
2023-06-04T09:10:13.557Z,1.98
2023-06-04T09:12:46.144Z,3.25
2023-06-04T09:15:13.911Z,3.03
2023-06-04T09:17:44.889Z,1.75
2023-06-04T09:20:22.679Z,2.97
2023-06-04T09:22:50.422Z,2.20
2023-06-04T09:25:27.611Z,2.53
2023-06-04T09:27:57.300Z,2.33
2023-06-04T09:30:26.259Z,2.85
2023-06-04T09:32:55.330Z,2.85
2023-06-04T09:35:23.072Z,1.80
2023-06-04T09:37:54.650Z,1.77
2023-06-04T09:40:22.372Z,3.38
2023-06-04T09:42:57.057Z,2.13
2023-06-04T09:45:31.859Z,2.42
2023-06-04T09:48:03.747Z,2.45
2023-06-04T09:50:35.774Z,1.92
2023-06-04T09:53:04.792Z,2.20
2023-06-04T09:55:32.395Z,2.00
2023-06-04T09:58:00.789Z,2.03
2023-06-04T10:00:29.925Z,2.20
2023-06-04T10:03:03.247Z,2.22
2023-06-04T10:05:35.564Z,2.65
2023-06-04T10:08:07.070Z,2.30
2023-06-04T10:10:36.525Z,2.00
2023-06-04T10:13:08.871Z,2.25
2023-06-04T10:15:37.770Z,3.33
2023-06-04T10:18:05.785Z,1.80
2023-06-04T10:20:33.760Z,2.53
2023-06-04T10:23:05.004Z,2.00
2023-06-04T10:25:33.161Z,2.20
2023-06-04T10:28:01.524Z,2.25
2023-06-04T10:30:29.263Z,2.33
2023-06-04T10:32:58.393Z,2.08
2023-06-04T10:35:35.986Z,3.58
2023-06-04T10:38:08.033Z,2.17
2023-06-04T10:40:35.611Z,2.67
2023-06-04T10:43:07.308Z,2.90
2023-06-04T10:45:35.049Z,2.80
2023-06-04T10:48:03.235Z,3.45
2023-06-04T10:50:31.022Z,2.55
2023-06-04T10:53:04.421Z,2.15
2023-06-04T10:55:32.421Z,1.98
2023-06-04T10:58:00.851Z,1.58
2023-06-04T11:00:42.399Z,2.35
2023-06-04T11:03:12.319Z,2.13
2023-06-04T11:05:41.035Z,2.25
2023-06-04T11:08:08.919Z,1.92
2023-06-04T11:10:37.555Z,1.95
2023-06-04T11:13:06.193Z,2.13
2023-06-04T11:15:43.044Z,2.13
2023-06-04T11:18:15.464Z,2.13
2023-06-04T11:20:44.606Z,2.63
2023-06-04T11:23:13.525Z,2.85
2023-06-04T11:25:41.202Z,2.35
2023-06-04T11:28:08.898Z,2.70
2023-06-04T11:30:36.568Z,1.20
2023-06-04T11:33:05.357Z,2.75
2023-06-04T11:35:33.448Z,2.75
2023-06-04T11:38:01.299Z,1.92
2023-06-04T11:40:28.910Z,1.90
2023-06-04T11:42:56.787Z,1.58
2023-06-04T11:45:31.376Z,2.25
2023-06-04T11:47:59.575Z,2.30
2023-06-04T11:50:30.764Z,2.67
2023-06-04T11:52:58.361Z,1.90
2023-06-04T11:55:26.519Z,3.15
2023-06-04T11:57:55.068Z,2.63
2023-06-04T12:00:23.698Z,2.10
2023-06-04T12:02:55.314Z,3.08
2023-06-04T12:05:26.732Z,1.85
2023-06-04T12:07:54.443Z,2.13
2023-06-04T12:10:22.636Z,2.30
2023-06-04T12:12:58.806Z,1.90
2023-06-04T12:15:29.231Z,2.15
2023-06-04T12:17:56.831Z,2.08
2023-06-04T12:20:37.989Z,2.00
2023-06-04T12:23:06.528Z,1.80
2023-06-04T12:25:34.343Z,1.75
2023-06-04T12:28:02.355Z,2.42
2023-06-04T12:30:40.204Z,2.08
2023-06-04T12:33:08.610Z,1.65
2023-06-04T12:35:36.566Z,2.63
2023-06-04T12:38:07.450Z,1.85
2023-06-04T12:40:35.092Z,3.05
2023-06-04T12:43:02.857Z,2.28
2023-06-04T12:45:30.687Z,1.63
2023-06-04T12:47:58.284Z,1.73
2023-06-04T12:50:26.025Z,2.13
2023-06-04T12:52:53.590Z,1.63
2023-06-04T12:55:21.198Z,2.17
2023-06-04T12:57:49.182Z,2.05
2023-06-04T13:00:18.278Z,1.83
2023-06-04T13:02:45.993Z,2.22
2023-06-04T13:05:13.588Z,1.40
2023-06-04T13:07:41.109Z,2.72
2023-06-04T13:10:09.026Z,3.33
2023-06-04T13:12:36.932Z,1.95
2023-06-04T13:15:04.692Z,1.88
2023-06-04T13:17:33.080Z,1.90
2023-06-04T13:20:00.824Z,2.50
2023-06-04T13:22:28.420Z,1.83
2023-06-04T13:24:55.976Z,3.03
2023-06-04T13:27:23.759Z,2.25
2023-06-04T13:29:51.423Z,1.70
2023-06-04T13:32:20.563Z,2.22
2023-06-04T13:34:48.289Z,2.90
2023-06-04T13:37:15.943Z,2.25
2023-06-04T13:39:43.549Z,2.67
2023-06-04T13:42:11.287Z,2.05
2023-06-04T13:44:38.921Z,2.13
2023-06-04T13:47:08.908Z,2.40
2023-06-04T13:49:37.275Z,2.55
2023-06-04T13:52:05.058Z,2.40
2023-06-04T13:54:33.305Z,2.28
2023-06-04T13:57:05.456Z,2.67
2023-06-04T13:59:33.069Z,2.97
2023-06-04T14:02:01.820Z,2.97
2023-06-04T14:04:29.710Z,2.97
2023-06-04T14:07:00.224Z,3.25
2023-06-04T14:09:27.803Z,2.08
2023-06-04T14:11:56.265Z,2.95
2023-06-04T14:14:23.770Z,3.22
2023-06-04T14:16:51.536Z,2.42
2023-06-04T14:19:19.084Z,2.80
2023-06-04T14:21:46.709Z,3.25
2023-06-04T14:24:14.322Z,4.57
2023-06-04T14:26:42.120Z,3.10
2023-06-04T14:29:09.682Z,3.45
2023-06-04T14:31:37.359Z,4.32
2023-06-04T14:34:05.502Z,3.45
2023-06-04T14:36:33.048Z,4.32
2023-06-04T14:39:00.825Z,3.50
2023-06-04T14:41:31.945Z,3.10
2023-06-04T14:43:59.741Z,3.65
2023-06-04T14:46:28.185Z,4.38
2023-06-04T14:48:55.920Z,3.67
2023-06-04T14:51:24.503Z,3.75
2023-06-04T14:53:52.012Z,4.63
2023-06-04T14:56:20.874Z,4.32
2023-06-04T14:58:48.478Z,4.30
2023-06-04T15:01:16.240Z,4.68
2023-06-04T15:03:43.976Z,4.60
2023-06-04T15:06:19.251Z,4.00
2023-06-04T15:08:47.764Z,3.35
2023-06-04T15:11:16.430Z,3.97
2023-06-04T15:13:44.006Z,6.07
2023-06-04T15:16:11.688Z,4.68
2023-06-04T15:18:39.399Z,4.50
2023-06-04T15:21:10.473Z,4.47
2023-06-04T15:23:38.794Z,4.10
2023-06-04T15:26:06.677Z,3.75
2023-06-04T15:28:34.218Z,3.85
2023-06-04T15:31:01.829Z,4.35
2023-06-04T15:33:29.471Z,4.00
2023-06-04T15:35:57.204Z,4.75
2023-06-04T15:38:26.060Z,4.05
2023-06-04T15:40:53.643Z,3.88
2023-06-04T15:43:22.030Z,3.63
2023-06-04T15:45:49.670Z,4.93
2023-06-04T15:48:17.295Z,4.65
2023-06-04T15:50:44.862Z,3.30
2023-06-04T15:53:12.490Z,3.75
2023-06-04T15:55:40.075Z,3.50
2023-06-04T15:58:07.589Z,3.72
2023-06-04T16:00:35.309Z,4.22
2023-06-04T16:03:02.892Z,3.72
2023-06-04T16:05:33.482Z,3.60
2023-06-04T16:08:02.102Z,4.03
2023-06-04T16:10:29.824Z,3.00
2023-06-04T16:12:57.370Z,3.50
2023-06-04T16:15:24.950Z,4.38
2023-06-04T16:17:52.631Z,3.85
2023-06-04T16:20:20.760Z,3.40
2023-06-04T16:22:48.314Z,3.20
2023-06-04T16:25:19.851Z,3.10
2023-06-04T16:27:47.759Z,5.00
2023-06-04T16:30:15.493Z,3.20
2023-06-04T16:32:43.254Z,3.95
2023-06-04T16:35:14.812Z,3.22
2023-06-04T16:37:42.427Z,3.53
2023-06-04T16:40:10.459Z,2.97
2023-06-04T16:42:38.265Z,3.53
2023-06-04T16:45:06.076Z,3.15
2023-06-04T16:47:34.645Z,2.85
2023-06-04T16:50:02.767Z,2.55
2023-06-04T16:52:30.394Z,3.28
2023-06-04T16:55:00.847Z,2.67
2023-06-04T16:57:28.516Z,3.75
2023-06-04T16:59:56.045Z,2.78
2023-06-04T17:02:23.813Z,3.40
2023-06-04T17:04:51.470Z,3.00
2023-06-04T17:07:19.079Z,2.92
2023-06-04T17:09:48.731Z,2.63
2023-06-04T17:12:16.669Z,2.42
2023-06-04T17:14:44.364Z,2.08
2023-06-04T17:17:12.072Z,2.60
2023-06-04T17:19:40.173Z,3.15
2023-06-04T17:22:07.773Z,2.45
2023-06-04T17:24:38.128Z,2.75
2023-06-04T17:27:05.762Z,2.72
2023-06-04T17:29:33.375Z,2.47
2023-06-04T17:32:01.009Z,3.17
2023-06-04T17:34:28.547Z,2.58
2023-06-04T17:36:56.171Z,2.33
2023-06-04T17:39:23.731Z,2.97
2023-06-04T17:41:51.515Z,2.90
2023-06-04T17:44:19.081Z,3.13
2023-06-04T17:46:48.751Z,3.08
2023-06-04T17:49:16.954Z,2.30
2023-06-04T17:51:44.710Z,2.20
2023-06-04T17:54:12.846Z,2.38
2023-06-04T17:56:40.550Z,2.28
2023-06-04T17:59:08.337Z,2.90
2023-06-04T18:01:36.609Z,2.65
2023-06-04T18:04:06.141Z,2.05
2023-06-04T18:06:33.757Z,2.95
2023-06-04T18:09:01.355Z,2.35
2023-06-04T18:11:29.175Z,2.65
2023-06-04T18:13:56.828Z,2.67
2023-06-04T18:16:24.532Z,1.80
2023-06-04T18:18:52.902Z,2.25
2023-06-04T18:21:20.474Z,3.88
2023-06-04T18:23:51.471Z,2.03
2023-06-04T18:26:19.679Z,2.55
2023-06-04T18:28:47.335Z,3.22
2023-06-04T18:31:14.997Z,4.20
2023-06-04T18:33:55.746Z,3.10
2023-06-04T18:36:23.582Z,2.70
2023-06-04T18:38:51.172Z,2.72
2023-06-04T18:41:18.931Z,3.28
2023-06-04T18:43:46.665Z,3.50
2023-06-04T18:46:14.284Z,3.70
2023-06-04T18:48:42.028Z,3.40
2023-06-04T18:51:09.741Z,3.63
2023-06-04T18:53:37.773Z,3.35
2023-06-04T18:56:05.493Z,3.35
2023-06-04T18:58:33.414Z,3.70
2023-06-04T19:01:01.136Z,4.55
2023-06-04T19:03:28.773Z,2.72
2023-06-04T19:05:56.433Z,4.40
2023-06-04T19:08:23.998Z,3.75
2023-06-04T19:10:53.535Z,4.00
2023-06-04T19:13:22.102Z,3.88
2023-06-04T19:15:52.528Z,4.32
2023-06-04T19:18:23.640Z,4.10
2023-06-04T19:20:51.257Z,4.00
2023-06-04T19:23:18.945Z,4.65
2023-06-04T19:25:46.519Z,5.53
2023-06-04T19:28:17.443Z,5.18
2023-06-04T19:30:45.345Z,4.70
2023-06-04T19:33:13.260Z,5.72
2023-06-04T19:35:41.401Z,5.68
2023-06-04T19:38:09.194Z,6.60
2023-06-04T19:40:38.009Z,5.85
2023-06-04T19:43:05.820Z,5.63
2023-06-04T19:45:34.066Z,5.45
2023-06-04T19:48:01.811Z,5.72
2023-06-04T19:50:29.453Z,7.75
2023-06-04T19:52:57.012Z,7.63
2023-06-04T19:55:24.604Z,6.70
2023-06-04T19:57:52.757Z,7.80
2023-06-04T20:00:20.208Z,5.38
2023-06-04T20:02:47.863Z,7.18
2023-06-04T20:05:18.948Z,8.18
2023-06-04T20:07:46.475Z,8.98
2023-06-04T20:10:14.082Z,6.88
2023-06-04T20:12:41.746Z,7.20
2023-06-04T20:15:09.447Z,8.52
2023-06-04T20:17:37.248Z,6.60
2023-06-04T20:20:04.925Z,9.23
2023-06-04T20:22:34.348Z,9.30
2023-06-04T20:25:01.867Z,7.85
2023-06-04T20:27:32.418Z,8.85
2023-06-04T20:30:00.007Z,8.48
2023-06-04T20:32:27.675Z,9.75
2023-06-04T20:34:55.321Z,8.20
2023-06-04T20:37:23.910Z,9.18
2023-06-04T20:39:51.767Z,10.57
2023-06-04T20:42:19.328Z,10.75
2023-06-04T20:44:47.744Z,11.57
2023-06-04T20:47:15.261Z,11.73
2023-06-04T20:49:42.751Z,11.13
2023-06-04T20:52:10.284Z,12.15
2023-06-04T20:54:37.841Z,11.60
2023-06-04T20:57:05.396Z,11.70
2023-06-04T20:59:32.906Z,11.20
2023-06-04T21:02:01.410Z,12.00
2023-06-04T21:04:28.887Z,9.98
2023-06-04T21:06:56.627Z,10.02
2023-06-04T21:09:24.268Z,10.93
2023-06-04T21:11:51.793Z,9.98
2023-06-04T21:14:19.301Z,10.18
2023-06-04T21:16:49.197Z,10.88
2023-06-04T21:19:16.820Z,10.68
2023-06-04T21:21:44.371Z,11.32
2023-06-04T21:24:12.085Z,12.90
2023-06-04T21:26:40.173Z,11.20
2023-06-04T21:29:07.799Z,10.60
2023-06-04T21:31:37.732Z,10.25
2023-06-04T21:34:05.203Z,10.15
2023-06-04T21:36:35.980Z,12.23
2023-06-04T21:39:03.715Z,11.85
2023-06-04T21:41:31.325Z,13.63
2023-06-04T21:43:59.035Z,11.75
2023-06-04T21:46:27.809Z,12.10
2023-06-04T21:48:55.249Z,11.35
2023-06-04T21:51:22.858Z,11.38
2023-06-04T21:53:53.364Z,10.35
2023-06-04T21:56:20.933Z,9.75
2023-06-04T21:58:48.514Z,11.40
2023-06-04T22:01:16.243Z,11.27
2023-06-04T22:03:43.958Z,10.80
2023-06-04T22:06:11.549Z,11.23
2023-06-04T22:08:39.366Z,12.38
2023-06-04T22:11:07.318Z,12.25
2023-06-04T22:13:34.944Z,10.43
2023-06-04T22:16:02.614Z,11.07
2023-06-04T22:18:37.605Z,10.75
2023-06-04T22:21:09.750Z,12.05
2023-06-04T22:23:37.355Z,11.32
2023-06-04T22:26:05.061Z,12.68
2023-06-04T22:28:32.567Z,10.73
2023-06-04T22:31:00.080Z,10.45
2023-06-04T22:33:27.745Z,10.75
2023-06-04T22:35:58.571Z,11.10
2023-06-04T22:38:26.202Z,13.52
2023-06-04T22:40:57.316Z,9.45
2023-06-04T22:43:26.907Z,10.75
2023-06-04T22:45:55.085Z,8.85
2023-06-04T22:48:22.657Z,9.35
2023-06-04T22:50:53.256Z,8.07
2023-06-04T22:53:21.009Z,9.35
2023-06-04T22:55:48.676Z,5.80
2023-06-04T22:58:17.070Z,3.83
2023-06-04T23:00:45.140Z,3.08
2023-06-04T23:03:16.954Z,3.30
2023-06-04T23:05:44.556Z,3.03
2023-06-04T23:08:15.071Z,2.58
2023-06-04T23:10:42.684Z,3.22
2023-06-04T23:13:10.358Z,2.42
2023-06-04T23:15:38.903Z,2.72
2023-06-04T23:18:09.735Z,2.20
2023-06-04T23:20:37.388Z,2.38
2023-06-04T23:23:04.752Z,2.88
2023-06-04T23:25:32.298Z,3.70
2023-06-04T23:27:59.869Z,3.58
2023-06-04T23:30:27.962Z,2.78
2023-06-04T23:32:55.472Z,2.83
2023-06-04T23:35:23.157Z,2.75
2023-06-04T23:37:50.528Z,3.10
2023-06-04T23:40:18.080Z,3.05
2023-06-04T23:42:45.907Z,2.50
2023-06-04T23:45:16.255Z,3.13
2023-06-04T23:47:43.979Z,2.42
2023-06-04T23:50:11.835Z,3.13
2023-06-04T23:52:40.867Z,4.65
2023-06-04T23:55:08.693Z,3.90
2023-06-04T23:57:38.074Z,3.15
